createdAt,value
2018-08-12T00:04:52.829Z,17.17
2018-08-12T00:09:45.727Z,17.11
2018-08-12T00:14:38.678Z,17.16
2018-08-12T00:19:31.676Z,17.17
2018-08-12T00:24:24.933Z,17.16
2018-08-12T00:29:17.994Z,17.22
2018-08-12T00:34:11.116Z,17.21
2018-08-12T00:39:07.746Z,17.27
2018-08-12T00:44:00.920Z,17.39
2018-08-12T00:48:54.058Z,17.42
2018-08-12T00:53:47.610Z,17.47
2018-08-12T00:58:40.950Z,17.59
2018-08-12T01:03:33.898Z,17.68
2018-08-12T01:08:26.937Z,17.77
2018-08-12T01:13:20.034Z,17.50
2018-08-12T01:18:12.977Z,17.44
2018-08-12T01:23:05.984Z,17.51
2018-08-12T01:27:59.066Z,17.40
2018-08-12T01:32:52.073Z,17.49
2018-08-12T01:37:46.006Z,17.42
2018-08-12T01:42:39.585Z,17.39
2018-08-12T01:47:32.741Z,17.30
2018-08-12T01:52:26.392Z,17.23
2018-08-12T01:57:19.538Z,17.26
2018-08-12T02:02:12.586Z,17.22
2018-08-12T02:07:05.625Z,17.08
2018-08-12T02:11:58.603Z,17.05
2018-08-12T02:16:51.644Z,17.11
2018-08-12T02:21:45.556Z,17.10
2018-08-12T02:26:38.567Z,16.96
2018-08-12T02:31:31.629Z,16.91
2018-08-12T02:36:24.612Z,16.97
2018-08-12T02:41:17.754Z,16.99
2018-08-12T02:46:10.785Z,16.92
2018-08-12T02:51:03.720Z,16.88
2018-08-12T02:55:56.778Z,16.88
2018-08-12T03:00:49.814Z,16.81
2018-08-12T03:05:42.995Z,16.82
2018-08-12T03:10:36.113Z,16.77
2018-08-12T03:15:29.235Z,16.72
2018-08-12T03:20:22.207Z,16.62
2018-08-12T03:25:15.266Z,16.65
2018-08-12T03:30:09.836Z,16.82
2018-08-12T03:35:02.745Z,16.78
2018-08-12T03:39:55.657Z,16.73
2018-08-12T03:44:48.767Z,16.74
2018-08-12T03:49:41.914Z,16.80
2018-08-12T03:54:34.878Z,16.76
2018-08-12T03:59:28.002Z,16.86
2018-08-12T04:04:21.071Z,16.81
2018-08-12T04:09:14.063Z,16.92
2018-08-12T04:14:07.534Z,16.96
2018-08-12T04:19:00.702Z,17.04
2018-08-12T04:23:53.802Z,17.10
2018-08-12T04:28:47.078Z,17.16
2018-08-12T04:33:40.203Z,17.26
2018-08-12T04:38:33.142Z,17.44
2018-08-12T04:43:26.186Z,17.64
2018-08-12T04:48:19.119Z,17.77
2018-08-12T04:53:12.152Z,17.85
2018-08-12T04:58:05.212Z,18.03
2018-08-12T05:02:58.178Z,18.19
2018-08-12T05:07:51.652Z,18.44
2018-08-12T05:12:44.734Z,18.49
2018-08-12T05:17:38.334Z,18.78
2018-08-12T05:22:31.410Z,19.07
2018-08-12T05:27:24.393Z,19.45
2018-08-12T05:32:17.570Z,19.69
2018-08-12T05:37:10.572Z,19.88
2018-08-12T05:42:03.598Z,20.04
2018-08-12T05:46:57.015Z,20.21
2018-08-12T05:51:50.003Z,20.36
2018-08-12T05:56:43.118Z,20.57
2018-08-12T06:01:36.209Z,20.78
2018-08-12T06:06:29.226Z,21.00
2018-08-12T06:11:22.177Z,21.19
2018-08-12T06:16:15.668Z,21.48
2018-08-12T06:21:08.734Z,21.81
2018-08-12T06:26:01.770Z,22.03
2018-08-12T06:30:54.783Z,22.40
2018-08-12T06:35:47.842Z,22.65
2018-08-12T06:40:41.150Z,22.87
2018-08-12T06:45:34.296Z,23.12
2018-08-12T06:50:27.411Z,23.26
2018-08-12T06:55:20.401Z,23.44
2018-08-12T07:00:15.353Z,23.66
2018-08-12T07:05:09.531Z,23.79
2018-08-12T07:10:03.303Z,23.83
2018-08-12T07:14:56.834Z,23.92
2018-08-12T07:19:49.825Z,23.99
2018-08-12T07:24:42.809Z,24.20
2018-08-12T07:29:35.833Z,24.35
2018-08-12T07:34:28.761Z,24.65
2018-08-12T07:39:21.718Z,24.87
2018-08-12T07:44:14.733Z,24.99
2018-08-12T07:49:07.784Z,25.05
2018-08-12T07:54:01.115Z,25.26
2018-08-12T07:58:54.213Z,25.71
2018-08-12T08:03:47.468Z,25.87
2018-08-12T08:08:40.546Z,26.10
2018-08-12T08:13:34.569Z,25.91
2018-08-12T08:18:28.246Z,26.15
2018-08-12T08:23:21.845Z,26.11
2018-08-12T08:28:14.879Z,26.41
2018-08-12T08:33:09.688Z,26.57
2018-08-12T08:38:02.935Z,26.47
2018-08-12T08:42:56.408Z,26.26
2018-08-12T08:47:50.702Z,26.21
2018-08-12T08:52:44.265Z,26.39
2018-08-12T08:57:37.617Z,26.79
2018-08-12T09:02:31.218Z,26.83
2018-08-12T09:07:24.310Z,26.65
2018-08-12T09:12:17.380Z,26.90
2018-08-12T09:17:10.505Z,26.94
2018-08-12T09:22:04.226Z,27.14
2018-08-12T09:26:57.336Z,27.20
2018-08-12T09:31:50.292Z,26.80
2018-08-12T09:36:43.238Z,26.74
2018-08-12T09:41:36.282Z,26.76
2018-08-12T09:46:30.171Z,27.16
2018-08-12T09:51:23.601Z,27.47
2018-08-12T09:56:16.699Z,27.28
2018-08-12T10:01:09.663Z,27.40
2018-08-12T10:06:03.169Z,27.16
2018-08-12T10:10:57.086Z,27.41
2018-08-12T10:15:50.362Z,27.38
2018-08-12T10:20:43.405Z,27.40
2018-08-12T10:25:36.346Z,27.59
2018-08-12T10:30:29.334Z,27.64
2018-08-12T10:35:22.445Z,27.59
2018-08-12T10:40:17.450Z,27.66
2018-08-12T10:45:11.380Z,27.70
2018-08-12T10:50:06.146Z,27.84
2018-08-12T10:54:59.240Z,28.13
2018-08-12T10:59:52.600Z,28.59
2018-08-12T11:04:45.767Z,28.46
2018-08-12T11:09:38.956Z,28.41
2018-08-12T11:14:32.147Z,28.37
2018-08-12T11:19:25.576Z,28.59
2018-08-12T11:24:18.753Z,28.13
2018-08-12T11:29:12.636Z,27.88
2018-08-12T11:34:06.229Z,28.19
2018-08-12T11:38:59.406Z,28.17
2018-08-12T11:43:52.540Z,27.96
2018-08-12T11:48:45.692Z,27.79
2018-08-12T11:53:38.629Z,27.86
2018-08-12T11:58:32.241Z,27.83
2018-08-12T12:03:25.496Z,27.82
2018-08-12T12:08:18.964Z,27.67
2018-08-12T12:13:12.715Z,27.88
2018-08-12T12:18:07.318Z,28.19
2018-08-12T12:23:00.399Z,28.26
2018-08-12T12:27:53.974Z,28.37
2018-08-12T12:32:48.142Z,28.12
2018-08-12T12:37:41.860Z,28.28
2018-08-12T12:42:34.936Z,28.34
2018-08-12T12:47:28.282Z,28.55
2018-08-12T12:52:21.969Z,28.67
2018-08-12T12:57:15.167Z,28.63
2018-08-12T13:02:08.238Z,28.50
2018-08-12T13:07:01.728Z,28.63
2018-08-12T13:11:55.122Z,28.50
2018-08-12T13:18:17.529Z,28.91
2018-08-12T13:23:10.590Z,29.49
2018-08-12T13:28:03.685Z,28.92
2018-08-12T13:32:56.875Z,28.21
2018-08-12T13:37:50.158Z,28.01
2018-08-12T13:42:44.135Z,28.27
2018-08-12T13:47:37.434Z,29.49
2018-08-12T13:52:30.624Z,30.81
2018-08-12T13:57:24.412Z,30.74
2018-08-12T14:02:17.658Z,30.32
2018-08-12T14:07:10.700Z,29.49
2018-08-12T14:12:03.782Z,28.78
2018-08-12T14:16:56.744Z,28.17
2018-08-12T14:21:49.684Z,28.22
2018-08-12T14:26:42.749Z,28.28
2018-08-12T14:31:35.693Z,28.61
2018-08-12T14:36:28.681Z,29.01
2018-08-12T14:41:21.821Z,30.02
2018-08-12T14:46:14.813Z,30.16
2018-08-12T14:51:07.833Z,29.47
2018-08-12T14:56:02.487Z,28.73
2018-08-12T15:00:55.516Z,28.46
2018-08-12T15:05:48.930Z,28.63
2018-08-12T15:10:41.906Z,28.55
2018-08-12T15:15:35.070Z,28.55
2018-08-12T15:20:28.166Z,28.56
2018-08-12T15:25:21.695Z,28.33
2018-08-12T15:30:14.840Z,28.00
2018-08-12T15:35:08.551Z,28.29
2018-08-12T15:40:02.185Z,28.38
2018-08-12T15:44:55.573Z,28.43
2018-08-12T15:49:49.174Z,28.57
2018-08-12T15:54:42.474Z,29.21
2018-08-12T15:59:35.518Z,29.58
2018-08-12T16:04:28.596Z,29.47
2018-08-12T16:09:24.339Z,29.49
2018-08-12T16:14:17.486Z,29.27
2018-08-12T16:19:20.411Z,28.89
2018-08-12T16:24:15.283Z,28.12
2018-08-12T16:29:09.628Z,27.61
2018-08-12T16:34:02.837Z,27.45
2018-08-12T16:38:56.625Z,27.31
2018-08-12T16:43:49.754Z,27.21
2018-08-12T16:48:43.119Z,26.94
2018-08-12T16:53:36.241Z,26.82
2018-08-12T16:58:29.773Z,26.70
2018-08-12T17:03:23.137Z,26.50
2018-08-12T17:08:16.327Z,26.38
2018-08-12T17:13:10.179Z,26.14
2018-08-12T17:18:03.398Z,25.97
2018-08-12T17:22:56.786Z,25.74
2018-08-12T17:27:49.813Z,25.62
2018-08-12T17:32:42.897Z,25.56
2018-08-12T17:37:36.008Z,25.26
2018-08-12T17:42:29.350Z,24.90
2018-08-12T17:47:22.304Z,24.66
2018-08-12T17:52:16.316Z,24.51
2018-08-12T17:57:09.285Z,24.27
2018-08-12T18:02:02.375Z,24.10
2018-08-12T18:06:55.414Z,23.88
2018-08-12T18:11:48.549Z,23.84
2018-08-12T18:16:41.556Z,23.69
2018-08-12T18:21:34.627Z,23.59
2018-08-12T18:26:28.146Z,23.36
2018-08-12T18:31:21.383Z,23.25
2018-08-12T18:36:14.636Z,23.15
2018-08-12T18:41:08.374Z,23.07
2018-08-12T18:46:01.576Z,22.94
2018-08-12T18:50:54.666Z,22.87
2018-08-12T18:55:48.874Z,22.67
2018-08-12T19:00:45.602Z,22.58
2018-08-12T19:05:44.679Z,22.53
2018-08-12T19:10:38.559Z,22.43
2018-08-12T19:15:31.610Z,22.31
2018-08-12T19:20:25.297Z,22.24
2018-08-12T19:25:18.315Z,22.14
2018-08-12T19:30:12.703Z,22.24
2018-08-12T19:35:06.096Z,21.99
2018-08-12T19:40:00.081Z,21.87
2018-08-12T19:44:53.134Z,21.77
2018-08-12T19:49:46.319Z,21.41
2018-08-12T19:54:42.827Z,21.29
2018-08-12T19:59:35.883Z,20.86
2018-08-12T20:04:28.914Z,20.64
2018-08-12T20:09:22.030Z,20.50
2018-08-12T20:14:15.390Z,20.54
2018-08-12T20:19:08.590Z,20.50
2018-08-12T20:24:05.605Z,20.43
2018-08-12T20:28:58.546Z,20.39
2018-08-12T20:33:51.819Z,20.43
2018-08-12T20:38:45.033Z,20.35
2018-08-12T20:43:38.115Z,20.24
2018-08-12T20:48:31.838Z,20.07
2018-08-12T20:53:25.265Z,19.90
2018-08-12T20:58:18.400Z,19.80
2018-08-12T21:03:11.558Z,19.80
2018-08-12T21:08:04.663Z,19.71
2018-08-12T21:12:58.407Z,19.84
2018-08-12T21:17:51.408Z,19.90
2018-08-12T21:22:44.340Z,19.87
2018-08-12T21:27:37.905Z,19.84
2018-08-12T21:32:33.104Z,19.78
2018-08-12T21:37:29.345Z,19.77
2018-08-12T21:42:24.496Z,19.64
2018-08-12T21:47:20.152Z,19.40
2018-08-12T21:52:15.339Z,19.42
2018-08-12T21:57:13.234Z,19.40
2018-08-12T22:02:08.654Z,19.37
2018-08-12T22:07:04.256Z,19.31
2018-08-12T22:12:00.557Z,19.27
2018-08-12T22:16:55.317Z,19.26
2018-08-12T22:21:48.534Z,19.30
2018-08-12T22:26:41.597Z,19.43
2018-08-12T22:31:34.878Z,19.37
2018-08-12T22:36:28.974Z,19.36
2018-08-12T22:41:22.058Z,19.23
2018-08-12T22:46:15.153Z,19.40
2018-08-12T22:51:08.170Z,19.46
2018-08-12T22:56:01.162Z,19.44
2018-08-12T23:00:54.250Z,19.43
2018-08-12T23:05:47.288Z,19.18
2018-08-12T23:10:40.837Z,19.05
2018-08-12T23:16:17.222Z,19.18
2018-08-12T23:21:12.206Z,19.06
2018-08-12T23:26:05.525Z,19.09
2018-08-12T23:30:58.766Z,19.08
2018-08-12T23:35:52.147Z,19.04
2018-08-12T23:40:45.257Z,19.01
2018-08-12T23:45:38.239Z,18.86
2018-08-12T23:50:31.390Z,18.88
2018-08-12T23:55:24.506Z,18.81
